Northport, New York
Current Conditions -  °F | °C
As of 5:53 AM on Sunday 21 Dec 2014 (Local Time) from KFRG Reporting Station
Overcast Overcast  
Wind Chill: 27°   Ceiling: 1900
Heat Index: 33°   Visibility: 10mi
Dew Point: 25°   Wind: 7mph
Humidity: 72%   Direction: 340°NNW
Pressure: 30.28"   Gusts: NA
Location:  40.9°N, 73.34°W
Report Text: KFRG 211053Z AUTO 34006KT 10SM OVC019 01/M04 A3028 RMK AO2 SLP252 T00061039
Loading
Personal Weather Stations






























Interactive Weather Map New forecast layout! Learn more

10-Day Weather Forecast

Advertisements
Track Severe Weather on mobile